sensor_id;sensor_type;location;lat;lon;timestamp;P1;durP1;ratioP1;P2;durP2;ratioP2
71856;SDS011;63344;46.980;28.882;2024-03-06T00:01:15;50.42;;;21.77;;
71856;SDS011;63344;46.980;28.882;2024-03-06T00:03:50;45.75;;;20.75;;
71856;SDS011;63344;46.980;28.882;2024-03-06T00:06:18;44.08;;;19.95;;
71856;SDS011;63344;46.980;28.882;2024-03-06T00:08:45;45.38;;;21.67;;
71856;SDS011;63344;46.980;28.882;2024-03-06T00:11:12;36.15;;;16.60;;
71856;SDS011;63344;46.980;28.882;2024-03-06T00:13:41;41.22;;;17.15;;
71856;SDS011;63344;46.980;28.882;2024-03-06T00:16:09;46.53;;;20.90;;
71856;SDS011;63344;46.980;28.882;2024-03-06T00:18:36;45.17;;;20.10;;
71856;SDS011;63344;46.980;28.882;2024-03-06T00:21:03;48.22;;;21.48;;
71856;SDS011;63344;46.980;28.882;2024-03-06T00:23:31;40.70;;;19.10;;
71856;SDS011;63344;46.980;28.882;2024-03-06T00:25:59;54.40;;;21.00;;
71856;SDS011;63344;46.980;28.882;2024-03-06T00:28:26;50.90;;;20.23;;
71856;SDS011;63344;46.980;28.882;2024-03-06T00:30:53;49.83;;;21.95;;
71856;SDS011;63344;46.980;28.882;2024-03-06T00:33:21;51.20;;;20.25;;
71856;SDS011;63344;46.980;28.882;2024-03-06T00:35:48;47.15;;;20.83;;
71856;SDS011;63344;46.980;28.882;2024-03-06T00:38:15;42.97;;;19.70;;
71856;SDS011;63344;46.980;28.882;2024-03-06T00:40:43;46.00;;;17.77;;
71856;SDS011;63344;46.980;28.882;2024-03-06T00:43:10;48.63;;;21.17;;
71856;SDS011;63344;46.980;28.882;2024-03-06T00:45:37;42.72;;;18.10;;
71856;SDS011;63344;46.980;28.882;2024-03-06T00:48:04;49.50;;;21.23;;
71856;SDS011;63344;46.980;28.882;2024-03-06T00:50:33;42.55;;;18.80;;
71856;SDS011;63344;46.980;28.882;2024-03-06T00:53:00;41.25;;;18.70;;
71856;SDS011;63344;46.980;28.882;2024-03-06T00:55:28;43.38;;;19.00;;
71856;SDS011;63344;46.980;28.882;2024-03-06T00:57:56;42.67;;;16.05;;
71856;SDS011;63344;46.980;28.882;2024-03-06T01:00:24;48.38;;;20.65;;
71856;SDS011;63344;46.980;28.882;2024-03-06T01:02:51;48.10;;;19.98;;
71856;SDS011;63344;46.980;28.882;2024-03-06T01:05:18;41.75;;;18.30;;
71856;SDS011;63344;46.980;28.882;2024-03-06T01:07:46;46.00;;;19.75;;
71856;SDS011;63344;46.980;28.882;2024-03-06T01:10:14;36.80;;;15.55;;
71856;SDS011;63344;46.980;28.882;2024-03-06T01:12:41;45.72;;;20.02;;
71856;SDS011;63344;46.980;28.882;2024-03-06T01:15:12;41.58;;;19.48;;
71856;SDS011;63344;46.980;28.882;2024-03-06T01:17:39;41.47;;;18.63;;
71856;SDS011;63344;46.980;28.882;2024-03-06T01:20:08;48.05;;;20.33;;
71856;SDS011;63344;46.980;28.882;2024-03-06T01:22:36;28.48;;;12.27;;
71856;SDS011;63344;46.980;28.882;2024-03-06T01:25:03;50.30;;;21.65;;
71856;SDS011;63344;46.980;28.882;2024-03-06T01:27:33;44.35;;;18.60;;
71856;SDS011;63344;46.980;28.882;2024-03-06T01:30:00;45.78;;;20.05;;
71856;SDS011;63344;46.980;28.882;2024-03-06T01:32:27;48.00;;;18.75;;
71856;SDS011;63344;46.980;28.882;2024-03-06T01:34:55;50.22;;;19.42;;
71856;SDS011;63344;46.980;28.882;2024-03-06T01:37:22;41.83;;;18.75;;
71856;SDS011;63344;46.980;28.882;2024-03-06T01:39:49;41.15;;;16.42;;
71856;SDS011;63344;46.980;28.882;2024-03-06T01:42:16;40.72;;;18.02;;
71856;SDS011;63344;46.980;28.882;2024-03-06T01:44:44;36.85;;;16.50;;
71856;SDS011;63344;46.980;28.882;2024-03-06T01:47:11;44.72;;;18.15;;
71856;SDS011;63344;46.980;28.882;2024-03-06T01:49:39;39.38;;;18.38;;
71856;SDS011;63344;46.980;28.882;2024-03-06T01:52:12;37.70;;;14.02;;
71856;SDS011;63344;46.980;28.882;2024-03-06T01:54:42;37.33;;;16.63;;
71856;SDS011;63344;46.980;28.882;2024-03-06T01:57:11;41.70;;;18.33;;
71856;SDS011;63344;46.980;28.882;2024-03-06T01:59:40;35.33;;;16.50;;
71856;SDS011;63344;46.980;28.882;2024-03-06T02:02:08;40.80;;;18.88;;
71856;SDS011;63344;46.980;28.882;2024-03-06T02:04:38;44.75;;;18.02;;
71856;SDS011;63344;46.980;28.882;2024-03-06T02:07:08;41.03;;;19.83;;
71856;SDS011;63344;46.980;28.882;2024-03-06T02:09:39;43.83;;;18.77;;
71856;SDS011;63344;46.980;28.882;2024-03-06T02:12:06;42.35;;;18.63;;
71856;SDS011;63344;46.980;28.882;2024-03-06T02:14:37;44.53;;;19.80;;
71856;SDS011;63344;46.980;28.882;2024-03-06T02:17:04;41.22;;;16.15;;
71856;SDS011;63344;46.980;28.882;2024-03-06T02:19:38;44.50;;;18.65;;
71856;SDS011;63344;46.980;28.882;2024-03-06T02:22:07;26.92;;;13.20;;
71856;SDS011;63344;46.980;28.882;2024-03-06T02:24:35;40.47;;;18.42;;
71856;SDS011;63344;46.980;28.882;2024-03-06T02:27:04;35.10;;;15.63;;
71856;SDS011;63344;46.980;28.882;2024-03-06T02:29:33;39.40;;;17.92;;
71856;SDS011;63344;46.980;28.882;2024-03-06T02:32:00;36.33;;;16.88;;
71856;SDS011;63344;46.980;28.882;2024-03-06T02:34:29;39.35;;;16.25;;
71856;SDS011;63344;46.980;28.882;2024-03-06T02:36:57;44.90;;;17.17;;
71856;SDS011;63344;46.980;28.882;2024-03-06T02:39:24;29.98;;;13.82;;
71856;SDS011;63344;46.980;28.882;2024-03-06T02:41:51;36.97;;;16.33;;
71856;SDS011;63344;46.980;28.882;2024-03-06T02:44:19;43.85;;;18.25;;
71856;SDS011;63344;46.980;28.882;2024-03-06T02:46:47;30.33;;;13.35;;
71856;SDS011;63344;46.980;28.882;2024-03-06T02:49:16;49.65;;;19.38;;
71856;SDS011;63344;46.980;28.882;2024-03-06T02:51:45;43.05;;;18.58;;
71856;SDS011;63344;46.980;28.882;2024-03-06T02:54:13;40.03;;;17.77;;
71856;SDS011;63344;46.980;28.882;2024-03-06T02:56:40;38.72;;;17.08;;
71856;SDS011;63344;46.980;28.882;2024-03-06T02:59:08;38.25;;;16.27;;
71856;SDS011;63344;46.980;28.882;2024-03-06T03:01:35;42.78;;;17.77;;
71856;SDS011;63344;46.980;28.882;2024-03-06T03:04:03;42.08;;;17.88;;
71856;SDS011;63344;46.980;28.882;2024-03-06T03:06:30;41.35;;;16.95;;
71856;SDS011;63344;46.980;28.882;2024-03-06T03:08:58;43.45;;;16.77;;
71856;SDS011;63344;46.980;28.882;2024-03-06T03:11:26;42.15;;;18.42;;
71856;SDS011;63344;46.980;28.882;2024-03-06T03:13:53;42.38;;;18.17;;
71856;SDS011;63344;46.980;28.882;2024-03-06T03:16:20;36.85;;;17.38;;
71856;SDS011;63344;46.980;28.882;2024-03-06T03:18:48;43.45;;;18.13;;
71856;SDS011;63344;46.980;28.882;2024-03-06T03:21:15;38.67;;;16.83;;
71856;SDS011;63344;46.980;28.882;2024-03-06T03:23:43;42.03;;;17.05;;
71856;SDS011;63344;46.980;28.882;2024-03-06T03:26:10;44.05;;;17.45;;
71856;SDS011;63344;46.980;28.882;2024-03-06T03:28:40;42.53;;;18.75;;
71856;SDS011;63344;46.980;28.882;2024-03-06T03:31:07;39.67;;;17.77;;
71856;SDS011;63344;46.980;28.882;2024-03-06T03:33:39;33.17;;;15.18;;
71856;SDS011;63344;46.980;28.882;2024-03-06T03:36:07;39.05;;;17.63;;
71856;SDS011;63344;46.980;28.882;2024-03-06T03:38:35;34.22;;;14.52;;
71856;SDS011;63344;46.980;28.882;2024-03-06T03:41:08;39.42;;;17.65;;
71856;SDS011;63344;46.980;28.882;2024-03-06T03:43:40;42.90;;;16.95;;
71856;SDS011;63344;46.980;28.882;2024-03-06T03:46:09;42.97;;;17.40;;
71856;SDS011;63344;46.980;28.882;2024-03-06T03:48:36;38.40;;;17.00;;
71856;SDS011;63344;46.980;28.882;2024-03-06T03:51:05;43.20;;;17.73;;
71856;SDS011;63344;46.980;28.882;2024-03-06T03:53:34;43.65;;;16.95;;
71856;SDS011;63344;46.980;28.882;2024-03-06T03:56:02;35.55;;;16.10;;
71856;SDS011;63344;46.980;28.882;2024-03-06T03:58:30;35.00;;;16.33;;
71856;SDS011;63344;46.980;28.882;2024-03-06T04:00:59;38.30;;;16.10;;
71856;SDS011;63344;46.980;28.882;2024-03-06T04:03:26;39.17;;;15.85;;
71856;SDS011;63344;46.980;28.882;2024-03-06T04:05:53;37.60;;;15.90;;
71856;SDS011;63344;46.980;28.882;2024-03-06T04:08:22;41.72;;;17.67;;
71856;SDS011;63344;46.980;28.882;2024-03-06T04:10:50;37.67;;;16.58;;
71856;SDS011;63344;46.980;28.882;2024-03-06T04:13:17;43.75;;;18.52;;
71856;SDS011;63344;46.980;28.882;2024-03-06T04:15:47;40.95;;;17.95;;
71856;SDS011;63344;46.980;28.882;2024-03-06T04:18:14;31.45;;;14.00;;
71856;SDS011;63344;46.980;28.882;2024-03-06T04:20:41;40.72;;;18.38;;
71856;SDS011;63344;46.980;28.882;2024-03-06T04:23:09;43.33;;;20.10;;
71856;SDS011;63344;46.980;28.882;2024-03-06T04:25:36;47.88;;;21.80;;
71856;SDS011;63344;46.980;28.882;2024-03-06T04:28:07;40.63;;;17.08;;
71856;SDS011;63344;46.980;28.882;2024-03-06T04:30:36;43.25;;;17.73;;
71856;SDS011;63344;46.980;28.882;2024-03-06T04:33:03;44.97;;;20.20;;
71856;SDS011;63344;46.980;28.882;2024-03-06T04:35:32;31.55;;;13.38;;
71856;SDS011;63344;46.980;28.882;2024-03-06T04:38:14;38.97;;;18.17;;
71856;SDS011;63344;46.980;28.882;2024-03-06T04:41:13;56.05;;;22.08;;
71856;SDS011;63344;46.980;28.882;2024-03-06T04:43:41;46.33;;;17.63;;
71856;SDS011;63344;46.980;28.882;2024-03-06T04:46:12;40.83;;;17.92;;
71856;SDS011;63344;46.980;28.882;2024-03-06T04:48:41;53.85;;;22.02;;
71856;SDS011;63344;46.980;28.882;2024-03-06T04:51:08;53.67;;;22.00;;
71856;SDS011;63344;46.980;28.882;2024-03-06T04:53:36;47.15;;;21.02;;
71856;SDS011;63344;46.980;28.882;2024-03-06T04:56:04;49.63;;;20.67;;
71856;SDS011;63344;46.980;28.882;2024-03-06T04:58:32;43.65;;;19.85;;
71856;SDS011;63344;46.980;28.882;2024-03-06T05:00:59;45.88;;;19.08;;
71856;SDS011;63344;46.980;28.882;2024-03-06T05:03:27;47.90;;;20.80;;
71856;SDS011;63344;46.980;28.882;2024-03-06T05:06:13;61.40;;;27.42;;
71856;SDS011;63344;46.980;28.882;2024-03-06T05:08:59;51.35;;;23.08;;
71856;SDS011;63344;46.980;28.882;2024-03-06T05:11:45;50.42;;;20.38;;
71856;SDS011;63344;46.980;28.882;2024-03-06T05:14:30;46.92;;;20.33;;
71856;SDS011;63344;46.980;28.882;2024-03-06T05:17:14;41.83;;;18.13;;
71856;SDS011;63344;46.980;28.882;2024-03-06T05:19:59;36.20;;;16.33;;
71856;SDS011;63344;46.980;28.882;2024-03-06T05:22:44;38.30;;;15.40;;
71856;SDS011;63344;46.980;28.882;2024-03-06T05:25:29;36.58;;;15.15;;
71856;SDS011;63344;46.980;28.882;2024-03-06T05:28:13;40.42;;;16.90;;
71856;SDS011;63344;46.980;28.882;2024-03-06T05:30:59;42.85;;;16.23;;
71856;SDS011;63344;46.980;28.882;2024-03-06T05:33:48;38.00;;;16.67;;
71856;SDS011;63344;46.980;28.882;2024-03-06T05:39:21;42.90;;;16.05;;
71856;SDS011;63344;46.980;28.882;2024-03-06T05:42:22;37.65;;;16.52;;
71856;SDS011;63344;46.980;28.882;2024-03-06T05:45:08;31.38;;;14.43;;
71856;SDS011;63344;46.980;28.882;2024-03-06T05:47:57;40.30;;;16.48;;
71856;SDS011;63344;46.980;28.882;2024-03-06T05:50:42;38.70;;;15.93;;
71856;SDS011;63344;46.980;28.882;2024-03-06T05:53:26;38.60;;;16.58;;
71856;SDS011;63344;46.980;28.882;2024-03-06T05:56:11;39.10;;;16.63;;
71856;SDS011;63344;46.980;28.882;2024-03-06T05:58:56;33.90;;;14.93;;
71856;SDS011;63344;46.980;28.882;2024-03-06T06:01:24;29.38;;;12.35;;
71856;SDS011;63344;46.980;28.882;2024-03-06T06:03:52;32.47;;;14.00;;
71856;SDS011;63344;46.980;28.882;2024-03-06T06:06:24;38.47;;;16.15;;
71856;SDS011;63344;46.980;28.882;2024-03-06T06:08:54;37.33;;;15.75;;
71856;SDS011;63344;46.980;28.882;2024-03-06T06:11:22;37.17;;;15.95;;
71856;SDS011;63344;46.980;28.882;2024-03-06T06:13:50;31.17;;;15.52;;
71856;SDS011;63344;46.980;28.882;2024-03-06T06:16:17;40.17;;;16.95;;
71856;SDS011;63344;46.980;28.882;2024-03-06T06:18:44;32.88;;;14.63;;
71856;SDS011;63344;46.980;28.882;2024-03-06T06:21:14;35.60;;;15.25;;
71856;SDS011;63344;46.980;28.882;2024-03-06T06:23:42;36.35;;;16.25;;
71856;SDS011;63344;46.980;28.882;2024-03-06T06:26:10;30.25;;;11.75;;
71856;SDS011;63344;46.980;28.882;2024-03-06T06:28:40;33.40;;;15.32;;
71856;SDS011;63344;46.980;28.882;2024-03-06T06:31:09;24.23;;;11.95;;
71856;SDS011;63344;46.980;28.882;2024-03-06T06:33:36;37.83;;;16.48;;
71856;SDS011;63344;46.980;28.882;2024-03-06T06:36:04;45.78;;;16.85;;
71856;SDS011;63344;46.980;28.882;2024-03-06T06:38:31;23.73;;;11.02;;
71856;SDS011;63344;46.980;28.882;2024-03-06T06:40:59;30.98;;;12.43;;
71856;SDS011;63344;46.980;28.882;2024-03-06T06:43:26;26.92;;;10.57;;
71856;SDS011;63344;46.980;28.882;2024-03-06T06:45:54;36.95;;;15.80;;
71856;SDS011;63344;46.980;28.882;2024-03-06T06:48:24;21.45;;;9.68;;
71856;SDS011;63344;46.980;28.882;2024-03-06T06:50:51;29.02;;;11.65;;
71856;SDS011;63344;46.980;28.882;2024-03-06T06:53:18;24.77;;;11.82;;
71856;SDS011;63344;46.980;28.882;2024-03-06T06:55:46;16.45;;;7.68;;
71856;SDS011;63344;46.980;28.882;2024-03-06T06:58:13;18.92;;;7.10;;
71856;SDS011;63344;46.980;28.882;2024-03-06T07:00:41;20.50;;;8.40;;
71856;SDS011;63344;46.980;28.882;2024-03-06T07:03:08;20.83;;;7.75;;
71856;SDS011;63344;46.980;28.882;2024-03-06T07:05:36;21.58;;;7.28;;
71856;SDS011;63344;46.980;28.882;2024-03-06T07:08:03;15.38;;;7.32;;
71856;SDS011;63344;46.980;28.882;2024-03-06T07:10:31;14.68;;;6.22;;
71856;SDS011;63344;46.980;28.882;2024-03-06T07:12:58;15.32;;;5.88;;
71856;SDS011;63344;46.980;28.882;2024-03-06T07:15:26;15.20;;;5.95;;
71856;SDS011;63344;46.980;28.882;2024-03-06T07:17:53;12.77;;;5.25;;
71856;SDS011;63344;46.980;28.882;2024-03-06T07:20:21;17.55;;;7.32;;
71856;SDS011;63344;46.980;28.882;2024-03-06T07:22:48;21.65;;;9.90;;
71856;SDS011;63344;46.980;28.882;2024-03-06T07:27:59;21.30;;;8.43;;
71856;SDS011;63344;46.980;28.882;2024-03-06T07:31:06;15.15;;;6.30;;
71856;SDS011;63344;46.980;28.882;2024-03-06T07:33:39;18.17;;;7.40;;
71856;SDS011;63344;46.980;28.882;2024-03-06T07:36:07;21.63;;;7.72;;
71856;SDS011;63344;46.980;28.882;2024-03-06T07:38:36;17.40;;;6.05;;
71856;SDS011;63344;46.980;28.882;2024-03-06T07:41:04;16.27;;;6.65;;
71856;SDS011;63344;46.980;28.882;2024-03-06T07:43:32;14.15;;;6.63;;
71856;SDS011;63344;46.980;28.882;2024-03-06T07:45:59;15.80;;;6.22;;
71856;SDS011;63344;46.980;28.882;2024-03-06T07:48:29;14.30;;;6.90;;
71856;SDS011;63344;46.980;28.882;2024-03-06T07:50:56;18.90;;;7.05;;
71856;SDS011;63344;46.980;28.882;2024-03-06T07:53:25;16.38;;;6.85;;
71856;SDS011;63344;46.980;28.882;2024-03-06T07:55:53;15.88;;;6.53;;
71856;SDS011;63344;46.980;28.882;2024-03-06T07:58:20;17.05;;;7.25;;
71856;SDS011;63344;46.980;28.882;2024-03-06T08:00:51;15.43;;;7.13;;
71856;SDS011;63344;46.980;28.882;2024-03-06T08:03:28;18.33;;;6.47;;
71856;SDS011;63344;46.980;28.882;2024-03-06T08:05:55;17.23;;;7.45;;
71856;SDS011;63344;46.980;28.882;2024-03-06T08:08:22;14.73;;;5.32;;
71856;SDS011;63344;46.980;28.882;2024-03-06T08:10:51;15.38;;;6.22;;
71856;SDS011;63344;46.980;28.882;2024-03-06T08:13:19;14.13;;;7.55;;
71856;SDS011;63344;46.980;28.882;2024-03-06T08:15:46;14.02;;;5.65;;
71856;SDS011;63344;46.980;28.882;2024-03-06T08:18:14;19.80;;;7.43;;
71856;SDS011;63344;46.980;28.882;2024-03-06T08:20:41;21.10;;;8.65;;
71856;SDS011;63344;46.980;28.882;2024-03-06T08:23:09;23.40;;;7.70;;
71856;SDS011;63344;46.980;28.882;2024-03-06T08:25:37;18.10;;;7.00;;
71856;SDS011;63344;46.980;28.882;2024-03-06T08:28:04;15.57;;;6.63;;
71856;SDS011;63344;46.980;28.882;2024-03-06T08:30:32;19.20;;;7.05;;
71856;SDS011;63344;46.980;28.882;2024-03-06T08:33:00;19.17;;;7.50;;
71856;SDS011;63344;46.980;28.882;2024-03-06T08:35:32;21.83;;;8.75;;
71856;SDS011;63344;46.980;28.882;2024-03-06T08:38:00;20.08;;;6.78;;
71856;SDS011;63344;46.980;28.882;2024-03-06T08:40:28;16.90;;;7.03;;
71856;SDS011;63344;46.980;28.882;2024-03-06T08:42:56;14.90;;;7.00;;
71856;SDS011;63344;46.980;28.882;2024-03-06T08:45:23;15.32;;;7.28;;
71856;SDS011;63344;46.980;28.882;2024-03-06T08:47:51;16.70;;;7.07;;
71856;SDS011;63344;46.980;28.882;2024-03-06T08:50:21;10.07;;;5.72;;
71856;SDS011;63344;46.980;28.882;2024-03-06T08:52:48;18.98;;;7.22;;
71856;SDS011;63344;46.980;28.882;2024-03-06T08:55:19;18.95;;;7.28;;
71856;SDS011;63344;46.980;28.882;2024-03-06T08:57:46;19.55;;;8.30;;
71856;SDS011;63344;46.980;28.882;2024-03-06T09:00:14;18.10;;;6.97;;
71856;SDS011;63344;46.980;28.882;2024-03-06T09:02:42;18.40;;;7.07;;
71856;SDS011;63344;46.980;28.882;2024-03-06T09:05:10;16.52;;;8.32;;
71856;SDS011;63344;46.980;28.882;2024-03-06T09:07:41;16.05;;;5.78;;
71856;SDS011;63344;46.980;28.882;2024-03-06T09:10:09;25.17;;;7.20;;
71856;SDS011;63344;46.980;28.882;2024-03-06T09:12:37;13.10;;;6.90;;
71856;SDS011;63344;46.980;28.882;2024-03-06T09:15:04;18.48;;;7.78;;
71856;SDS011;63344;46.980;28.882;2024-03-06T09:17:35;17.15;;;6.45;;
71856;SDS011;63344;46.980;28.882;2024-03-06T09:20:02;21.40;;;7.45;;
71856;SDS011;63344;46.980;28.882;2024-03-06T09:22:39;21.10;;;8.02;;
71856;SDS011;63344;46.980;28.882;2024-03-06T09:25:07;13.75;;;6.35;;
71856;SDS011;63344;46.980;28.882;2024-03-06T09:27:35;14.50;;;6.63;;
71856;SDS011;63344;46.980;28.882;2024-03-06T09:30:03;17.00;;;7.68;;
71856;SDS011;63344;46.980;28.882;2024-03-06T09:32:32;26.88;;;8.55;;
71856;SDS011;63344;46.980;28.882;2024-03-06T09:35:19;13.43;;;5.90;;
71856;SDS011;63344;46.980;28.882;2024-03-06T09:37:46;15.98;;;7.32;;
71856;SDS011;63344;46.980;28.882;2024-03-06T09:40:23;19.38;;;8.18;;
71856;SDS011;63344;46.980;28.882;2024-03-06T09:42:51;13.45;;;6.10;;
71856;SDS011;63344;46.980;28.882;2024-03-06T09:45:20;16.52;;;8.60;;
71856;SDS011;63344;46.980;28.882;2024-03-06T09:47:47;15.23;;;8.82;;
71856;SDS011;63344;46.980;28.882;2024-03-06T09:50:18;13.88;;;5.55;;
71856;SDS011;63344;46.980;28.882;2024-03-06T09:52:51;16.52;;;6.90;;
71856;SDS011;63344;46.980;28.882;2024-03-06T09:55:21;12.07;;;6.10;;
71856;SDS011;63344;46.980;28.882;2024-03-06T09:57:50;13.02;;;6.30;;
71856;SDS011;63344;46.980;28.882;2024-03-06T10:00:18;14.60;;;5.55;;
71856;SDS011;63344;46.980;28.882;2024-03-06T10:02:51;12.68;;;5.35;;
71856;SDS011;63344;46.980;28.882;2024-03-06T10:05:25;8.82;;;5.57;;
71856;SDS011;63344;46.980;28.882;2024-03-06T10:07:53;14.05;;;6.95;;
71856;SDS011;63344;46.980;28.882;2024-03-06T10:10:20;18.38;;;7.60;;
71856;SDS011;63344;46.980;28.882;2024-03-06T10:12:50;18.85;;;6.95;;
71856;SDS011;63344;46.980;28.882;2024-03-06T10:15:18;14.98;;;6.07;;
71856;SDS011;63344;46.980;28.882;2024-03-06T10:17:46;14.15;;;6.43;;
71856;SDS011;63344;46.980;28.882;2024-03-06T10:22:48;10.68;;;6.13;;
71856;SDS011;63344;46.980;28.882;2024-03-06T10:25:24;15.20;;;5.88;;
71856;SDS011;63344;46.980;28.882;2024-03-06T10:30:40;15.68;;;5.15;;
71856;SDS011;63344;46.980;28.882;2024-03-06T10:33:13;12.18;;;5.63;;
71856;SDS011;63344;46.980;28.882;2024-03-06T10:35:42;12.90;;;6.15;;
71856;SDS011;63344;46.980;28.882;2024-03-06T10:38:11;14.68;;;5.55;;
71856;SDS011;63344;46.980;28.882;2024-03-06T10:40:42;9.15;;;4.50;;
71856;SDS011;63344;46.980;28.882;2024-03-06T10:43:10;11.40;;;4.45;;
71856;SDS011;63344;46.980;28.882;2024-03-06T10:45:46;14.65;;;5.60;;
71856;SDS011;63344;46.980;28.882;2024-03-06T10:48:19;14.80;;;5.32;;
71856;SDS011;63344;46.980;28.882;2024-03-06T10:50:48;13.52;;;4.43;;
71856;SDS011;63344;46.980;28.882;2024-03-06T10:53:17;12.57;;;5.18;;
71856;SDS011;63344;46.980;28.882;2024-03-06T10:55:49;9.90;;;4.22;;
71856;SDS011;63344;46.980;28.882;2024-03-06T10:58:17;13.18;;;4.40;;
71856;SDS011;63344;46.980;28.882;2024-03-06T11:00:47;14.75;;;4.32;;
71856;SDS011;63344;46.980;28.882;2024-03-06T11:03:22;17.88;;;7.53;;
71856;SDS011;63344;46.980;28.882;2024-03-06T11:05:52;13.57;;;4.53;;
71856;SDS011;63344;46.980;28.882;2024-03-06T11:08:20;6.85;;;4.32;;
71856;SDS011;63344;46.980;28.882;2024-03-06T11:10:48;11.63;;;4.63;;
71856;SDS011;63344;46.980;28.882;2024-03-06T11:15:47;8.23;;;4.63;;
71856;SDS011;63344;46.980;28.882;2024-03-06T11:23:31;9.55;;;4.53;;
71856;SDS011;63344;46.980;28.882;2024-03-06T11:26:03;9.10;;;5.32;;
71856;SDS011;63344;46.980;28.882;2024-03-06T11:28:41;14.38;;;5.45;;
71856;SDS011;63344;46.980;28.882;2024-03-06T11:31:18;13.60;;;4.95;;
71856;SDS011;63344;46.980;28.882;2024-03-06T11:33:54;13.70;;;4.70;;
71856;SDS011;63344;46.980;28.882;2024-03-06T11:36:37;9.80;;;4.72;;
71856;SDS011;63344;46.980;28.882;2024-03-06T11:39:14;15.05;;;5.88;;
71856;SDS011;63344;46.980;28.882;2024-03-06T11:44:14;10.55;;;5.57;;
71856;SDS011;63344;46.980;28.882;2024-03-06T11:46:47;12.65;;;5.50;;
71856;SDS011;63344;46.980;28.882;2024-03-06T11:49:21;11.23;;;4.88;;
71856;SDS011;63344;46.980;28.882;2024-03-06T11:51:53;10.23;;;4.03;;
71856;SDS011;63344;46.980;28.882;2024-03-06T11:54:39;10.80;;;4.85;;
71856;SDS011;63344;46.980;28.882;2024-03-06T11:57:17;11.55;;;5.50;;
71856;SDS011;63344;46.980;28.882;2024-03-06T11:59:49;19.65;;;6.65;;
71856;SDS011;63344;46.980;28.882;2024-03-06T12:02:16;11.65;;;3.83;;
71856;SDS011;63344;46.980;28.882;2024-03-06T12:04:44;13.05;;;4.57;;
71856;SDS011;63344;46.980;28.882;2024-03-06T12:07:12;14.40;;;4.65;;
71856;SDS011;63344;46.980;28.882;2024-03-06T12:09:42;8.25;;;4.85;;
71856;SDS011;63344;46.980;28.882;2024-03-06T12:12:10;15.00;;;5.68;;
71856;SDS011;63344;46.980;28.882;2024-03-06T12:17:23;20.17;;;6.68;;
71856;SDS011;63344;46.980;28.882;2024-03-06T12:19:54;12.30;;;4.40;;
71856;SDS011;63344;46.980;28.882;2024-03-06T12:22:31;8.45;;;5.10;;
71856;SDS011;63344;46.980;28.882;2024-03-06T12:24:59;10.98;;;4.00;;
71856;SDS011;63344;46.980;28.882;2024-03-06T12:27:30;12.70;;;5.28;;
71856;SDS011;63344;46.980;28.882;2024-03-06T12:30:07;13.57;;;5.82;;
71856;SDS011;63344;46.980;28.882;2024-03-06T12:32:36;12.02;;;4.63;;
71856;SDS011;63344;46.980;28.882;2024-03-06T12:35:04;14.18;;;4.93;;
71856;SDS011;63344;46.980;28.882;2024-03-06T12:37:36;11.18;;;5.25;;
71856;SDS011;63344;46.980;28.882;2024-03-06T12:40:09;9.27;;;4.63;;
71856;SDS011;63344;46.980;28.882;2024-03-06T12:42:40;12.57;;;4.35;;
71856;SDS011;63344;46.980;28.882;2024-03-06T12:47:42;9.43;;;4.15;;
71856;SDS011;63344;46.980;28.882;2024-03-06T12:50:11;11.07;;;5.07;;
71856;SDS011;63344;46.980;28.882;2024-03-06T12:52:38;10.80;;;4.60;;
71856;SDS011;63344;46.980;28.882;2024-03-06T12:55:06;9.35;;;5.10;;
71856;SDS011;63344;46.980;28.882;2024-03-06T12:57:34;12.02;;;4.28;;
71856;SDS011;63344;46.980;28.882;2024-03-06T13:00:01;12.52;;;5.95;;
71856;SDS011;63344;46.980;28.882;2024-03-06T13:02:33;9.23;;;4.60;;
71856;SDS011;63344;46.980;28.882;2024-03-06T13:05:01;13.93;;;4.55;;
71856;SDS011;63344;46.980;28.882;2024-03-06T13:07:28;20.48;;;6.55;;
71856;SDS011;63344;46.980;28.882;2024-03-06T13:09:57;7.50;;;4.18;;
71856;SDS011;63344;46.980;28.882;2024-03-06T13:12:27;13.32;;;5.32;;
71856;SDS011;63344;46.980;28.882;2024-03-06T13:14:55;19.25;;;5.75;;
71856;SDS011;63344;46.980;28.882;2024-03-06T13:17:23;15.43;;;6.63;;
71856;SDS011;63344;46.980;28.882;2024-03-06T13:19:51;11.00;;;5.22;;
71856;SDS011;63344;46.980;28.882;2024-03-06T13:22:35;11.40;;;4.43;;
71856;SDS011;63344;46.980;28.882;2024-03-06T13:25:03;6.75;;;3.67;;
71856;SDS011;63344;46.980;28.882;2024-03-06T13:27:40;7.90;;;3.78;;
71856;SDS011;63344;46.980;28.882;2024-03-06T13:30:17;21.85;;;7.57;;
71856;SDS011;63344;46.980;28.882;2024-03-06T13:32:45;9.52;;;5.13;;
71856;SDS011;63344;46.980;28.882;2024-03-06T13:35:25;10.13;;;4.97;;
71856;SDS011;63344;46.980;28.882;2024-03-06T13:37:56;11.77;;;6.18;;
71856;SDS011;63344;46.980;28.882;2024-03-06T13:40:31;12.07;;;4.65;;
71856;SDS011;63344;46.980;28.882;2024-03-06T13:43:01;8.63;;;4.45;;
71856;SDS011;63344;46.980;28.882;2024-03-06T13:45:34;17.77;;;5.82;;
71856;SDS011;63344;46.980;28.882;2024-03-06T13:48:02;8.25;;;4.85;;
71856;SDS011;63344;46.980;28.882;2024-03-06T13:50:31;7.13;;;3.78;;
71856;SDS011;63344;46.980;28.882;2024-03-06T13:52:58;6.70;;;4.45;;
71856;SDS011;63344;46.980;28.882;2024-03-06T13:55:28;13.30;;;4.05;;
71856;SDS011;63344;46.980;28.882;2024-03-06T13:58:17;9.93;;;4.55;;
71856;SDS011;63344;46.980;28.882;2024-03-06T14:00:45;19.00;;;7.13;;
71856;SDS011;63344;46.980;28.882;2024-03-06T14:03:14;16.25;;;5.28;;
71856;SDS011;63344;46.980;28.882;2024-03-06T14:05:41;18.95;;;7.03;;
71856;SDS011;63344;46.980;28.882;2024-03-06T14:08:09;8.45;;;4.53;;
71856;SDS011;63344;46.980;28.882;2024-03-06T14:10:39;18.25;;;5.88;;
71856;SDS011;63344;46.980;28.882;2024-03-06T14:15:35;13.40;;;6.32;;
71856;SDS011;63344;46.980;28.882;2024-03-06T14:23:01;9.45;;;3.67;;
71856;SDS011;63344;46.980;28.882;2024-03-06T14:25:29;11.85;;;6.05;;
71856;SDS011;63344;46.980;28.882;2024-03-06T14:27:57;12.75;;;4.70;;
71856;SDS011;63344;46.980;28.882;2024-03-06T14:30:28;17.55;;;5.60;;
71856;SDS011;63344;46.980;28.882;2024-03-06T14:32:59;12.77;;;4.32;;
71856;SDS011;63344;46.980;28.882;2024-03-06T14:35:29;12.82;;;5.57;;
71856;SDS011;63344;46.980;28.882;2024-03-06T14:38:10;9.55;;;4.97;;
71856;SDS011;63344;46.980;28.882;2024-03-06T14:40:42;14.68;;;4.90;;
71856;SDS011;63344;46.980;28.882;2024-03-06T14:43:49;11.82;;;6.13;;
71856;SDS011;63344;46.980;28.882;2024-03-06T14:46:18;10.90;;;5.38;;
71856;SDS011;63344;46.980;28.882;2024-03-06T14:48:49;11.35;;;5.90;;
71856;SDS011;63344;46.980;28.882;2024-03-06T14:51:35;16.73;;;7.05;;
71856;SDS011;63344;46.980;28.882;2024-03-06T14:54:06;12.75;;;7.00;;
71856;SDS011;63344;46.980;28.882;2024-03-06T14:56:34;19.10;;;7.75;;
71856;SDS011;63344;46.980;28.882;2024-03-06T14:59:06;13.27;;;6.07;;
71856;SDS011;63344;46.980;28.882;2024-03-06T15:01:49;16.08;;;4.43;;
71856;SDS011;63344;46.980;28.882;2024-03-06T15:04:21;13.07;;;5.07;;
71856;SDS011;63344;46.980;28.882;2024-03-06T15:06:49;11.43;;;4.32;;
71856;SDS011;63344;46.980;28.882;2024-03-06T15:09:22;13.20;;;4.95;;